sensor_id;sensor_type;location;lat;lon;timestamp;P1;durP1;ratioP1;P2;durP2;ratioP2
85759;SDS011;76206;39.770;2.710;2024-02-26T07:15:31;4.80;;;2.00;;
85759;SDS011;76206;39.770;2.710;2024-02-26T07:17:58;3.60;;;1.70;;
85759;SDS011;76206;39.770;2.710;2024-02-26T07:20:28;6.90;;;1.80;;
85759;SDS011;76206;39.770;2.710;2024-02-26T07:22:54;3.50;;;1.60;;
85759;SDS011;76206;39.770;2.710;2024-02-26T07:25:20;5.10;;;1.30;;
85759;SDS011;76206;39.770;2.710;2024-02-26T07:27:46;3.60;;;1.40;;
85759;SDS011;76206;39.770;2.710;2024-02-26T07:30:12;7.00;;;1.50;;
85759;SDS011;76206;39.770;2.710;2024-02-26T07:32:38;4.00;;;1.70;;
85759;SDS011;76206;39.770;2.710;2024-02-26T07:35:03;6.40;;;1.80;;
85759;SDS011;76206;39.770;2.710;2024-02-26T07:37:30;7.90;;;1.80;;
85759;SDS011;76206;39.770;2.710;2024-02-26T07:39:55;6.30;;;1.70;;
85759;SDS011;76206;39.770;2.710;2024-02-26T07:42:21;3.80;;;1.10;;
85759;SDS011;76206;39.770;2.710;2024-02-26T07:44:47;4.40;;;1.40;;
85759;SDS011;76206;39.770;2.710;2024-02-26T07:47:12;4.40;;;1.70;;
85759;SDS011;76206;39.770;2.710;2024-02-26T07:49:39;3.30;;;1.30;;
85759;SDS011;76206;39.770;2.710;2024-02-26T07:52:05;5.60;;;1.50;;
85759;SDS011;76206;39.770;2.710;2024-02-26T07:54:30;7.10;;;2.20;;
85759;SDS011;76206;39.770;2.710;2024-02-26T07:56:56;6.50;;;2.30;;
85759;SDS011;76206;39.770;2.710;2024-02-26T07:59:22;4.60;;;1.40;;
85759;SDS011;76206;39.770;2.710;2024-02-26T08:01:51;4.30;;;1.50;;
85759;SDS011;76206;39.770;2.710;2024-02-26T08:04:16;6.50;;;1.70;;
85759;SDS011;76206;39.770;2.710;2024-02-26T08:06:42;3.70;;;1.30;;
85759;SDS011;76206;39.770;2.710;2024-02-26T08:09:08;6.20;;;1.60;;
85759;SDS011;76206;39.770;2.710;2024-02-26T08:11:33;4.80;;;1.80;;
85759;SDS011;76206;39.770;2.710;2024-02-26T08:13:59;3.90;;;1.60;;
85759;SDS011;76206;39.770;2.710;2024-02-26T08:16:25;5.20;;;1.60;;
85759;SDS011;76206;39.770;2.710;2024-02-26T08:18:51;7.20;;;2.00;;
85759;SDS011;76206;39.770;2.710;2024-02-26T08:21:17;5.00;;;1.50;;
85759;SDS011;76206;39.770;2.710;2024-02-26T08:23:45;7.00;;;2.10;;
85759;SDS011;76206;39.770;2.710;2024-02-26T08:26:11;8.90;;;2.40;;
85759;SDS011;76206;39.770;2.710;2024-02-26T08:28:37;4.90;;;1.80;;
85759;SDS011;76206;39.770;2.710;2024-02-26T08:31:03;6.60;;;1.80;;
85759;SDS011;76206;39.770;2.710;2024-02-26T08:33:28;8.30;;;2.30;;
85759;SDS011;76206;39.770;2.710;2024-02-26T08:35:54;5.70;;;2.00;;
85759;SDS011;76206;39.770;2.710;2024-02-26T08:38:19;13.40;;;3.60;;
85759;SDS011;76206;39.770;2.710;2024-02-26T08:43:10;6.00;;;3.00;;
85759;SDS011;76206;39.770;2.710;2024-02-26T08:45:36;10.30;;;3.30;;
85759;SDS011;76206;39.770;2.710;2024-02-26T08:48:02;6.70;;;2.60;;
85759;SDS011;76206;39.770;2.710;2024-02-26T08:50:28;10.80;;;2.90;;
85759;SDS011;76206;39.770;2.710;2024-02-26T08:52:53;10.20;;;3.80;;
85759;SDS011;76206;39.770;2.710;2024-02-26T08:55:19;13.30;;;3.50;;
85759;SDS011;76206;39.770;2.710;2024-02-26T08:57:44;10.50;;;3.10;;
85759;SDS011;76206;39.770;2.710;2024-02-26T09:02:36;7.30;;;2.70;;
85759;SDS011;76206;39.770;2.710;2024-02-26T09:05:04;11.80;;;3.90;;
85759;SDS011;76206;39.770;2.710;2024-02-26T09:07:30;6.30;;;2.70;;
85759;SDS011;76206;39.770;2.710;2024-02-26T09:09:56;6.10;;;1.90;;
85759;SDS011;76206;39.770;2.710;2024-02-26T09:14:47;5.90;;;1.80;;
85759;SDS011;76206;39.770;2.710;2024-02-26T09:17:13;5.40;;;1.50;;
85759;SDS011;76206;39.770;2.710;2024-02-26T09:22:04;5.90;;;1.70;;
85759;SDS011;76206;39.770;2.710;2024-02-26T09:26:55;4.80;;;1.60;;
85759;SDS011;76206;39.770;2.710;2024-02-26T09:29:20;8.20;;;1.60;;
85759;SDS011;76206;39.770;2.710;2024-02-26T09:31:46;6.30;;;1.80;;
85759;SDS011;76206;39.770;2.710;2024-02-26T09:34:14;3.60;;;1.70;;
85759;SDS011;76206;39.770;2.710;2024-02-26T09:39:05;7.20;;;1.90;;
85759;SDS011;76206;39.770;2.710;2024-02-26T09:41:32;6.70;;;1.80;;
85759;SDS011;76206;39.770;2.710;2024-02-26T09:46:27;7.90;;;1.80;;
85759;SDS011;76206;39.770;2.710;2024-02-26T09:48:53;8.60;;;2.50;;
85759;SDS011;76206;39.770;2.710;2024-02-26T09:51:19;6.20;;;2.40;;
85759;SDS011;76206;39.770;2.710;2024-02-26T09:53:48;10.90;;;2.60;;
85759;SDS011;76206;39.770;2.710;2024-02-26T09:56:17;10.40;;;2.60;;
85759;SDS011;76206;39.770;2.710;2024-02-26T09:58:42;10.70;;;2.30;;
85759;SDS011;76206;39.770;2.710;2024-02-26T10:01:11;9.10;;;3.10;;
85759;SDS011;76206;39.770;2.710;2024-02-26T10:03:41;12.90;;;3.60;;
85759;SDS011;76206;39.770;2.710;2024-02-26T10:06:10;5.50;;;1.50;;
85759;SDS011;76206;39.770;2.710;2024-02-26T10:08:36;7.80;;;2.00;;
85759;SDS011;76206;39.770;2.710;2024-02-26T10:11:06;8.60;;;2.00;;
85759;SDS011;76206;39.770;2.710;2024-02-26T10:13:34;7.50;;;2.40;;
85759;SDS011;76206;39.770;2.710;2024-02-26T10:16:01;5.70;;;2.10;;
85759;SDS011;76206;39.770;2.710;2024-02-26T10:18:44;7.20;;;2.20;;
85759;SDS011;76206;39.770;2.710;2024-02-26T10:21:15;6.60;;;2.20;;
85759;SDS011;76206;39.770;2.710;2024-02-26T10:23:43;8.10;;;2.70;;
85759;SDS011;76206;39.770;2.710;2024-02-26T10:26:12;6.80;;;1.40;;
85759;SDS011;76206;39.770;2.710;2024-02-26T10:28:39;3.20;;;1.50;;
85759;SDS011;76206;39.770;2.710;2024-02-26T10:31:06;3.20;;;1.40;;
85759;SDS011;76206;39.770;2.710;2024-02-26T10:33:35;6.30;;;1.40;;
85759;SDS011;76206;39.770;2.710;2024-02-26T10:36:04;3.30;;;1.00;;
85759;SDS011;76206;39.770;2.710;2024-02-26T10:38:32;3.10;;;1.20;;
85759;SDS011;76206;39.770;2.710;2024-02-26T10:40:58;4.70;;;1.40;;
85759;SDS011;76206;39.770;2.710;2024-02-26T10:43:25;4.20;;;1.80;;
85759;SDS011;76206;39.770;2.710;2024-02-26T10:45:51;6.30;;;1.70;;
85759;SDS011;76206;39.770;2.710;2024-02-26T10:50:42;3.00;;;1.10;;
85759;SDS011;76206;39.770;2.710;2024-02-26T10:53:19;3.90;;;1.60;;
85759;SDS011;76206;39.770;2.710;2024-02-26T10:55:48;2.80;;;1.00;;
85759;SDS011;76206;39.770;2.710;2024-02-26T10:58:17;2.80;;;0.70;;
85759;SDS011;76206;39.770;2.710;2024-02-26T11:00:44;1.90;;;0.70;;
85759;SDS011;76206;39.770;2.710;2024-02-26T11:03:12;1.20;;;0.80;;
85759;SDS011;76206;39.770;2.710;2024-02-26T11:05:41;2.50;;;0.50;;
85759;SDS011;76206;39.770;2.710;2024-02-26T11:08:10;1.80;;;0.90;;
85759;SDS011;76206;39.770;2.710;2024-02-26T11:10:36;2.70;;;1.10;;
85759;SDS011;76206;39.770;2.710;2024-02-26T11:13:03;1.70;;;1.00;;
85759;SDS011;76206;39.770;2.710;2024-02-26T11:15:31;5.30;;;2.20;;
85759;SDS011;76206;39.770;2.710;2024-02-26T11:17:58;4.50;;;1.10;;
85759;SDS011;76206;39.770;2.710;2024-02-26T11:20:25;2.40;;;1.30;;
85759;SDS011;76206;39.770;2.710;2024-02-26T11:22:54;3.50;;;1.00;;
85759;SDS011;76206;39.770;2.710;2024-02-26T11:25:20;3.30;;;1.30;;
85759;SDS011;76206;39.770;2.710;2024-02-26T11:27:49;1.90;;;0.60;;
85759;SDS011;76206;39.770;2.710;2024-02-26T11:32:45;4.00;;;1.10;;
85759;SDS011;76206;39.770;2.710;2024-02-26T11:35:13;3.10;;;1.30;;
85759;SDS011;76206;39.770;2.710;2024-02-26T11:37:50;2.90;;;1.70;;
85759;SDS011;76206;39.770;2.710;2024-02-26T11:40:17;3.00;;;1.10;;
85759;SDS011;76206;39.770;2.710;2024-02-26T11:48:04;4.20;;;1.00;;
85759;SDS011;76206;39.770;2.710;2024-02-26T11:50:39;2.50;;;1.40;;
85759;SDS011;76206;39.770;2.710;2024-02-26T11:53:24;8.30;;;2.00;;
85759;SDS011;76206;39.770;2.710;2024-02-26T11:59:05;3.90;;;1.60;;
85759;SDS011;76206;39.770;2.710;2024-02-26T12:04:12;4.30;;;1.80;;
85759;SDS011;76206;39.770;2.710;2024-02-26T12:06:52;5.50;;;1.80;;
85759;SDS011;76206;39.770;2.710;2024-02-26T12:09:30;5.30;;;2.40;;
85759;SDS011;76206;39.770;2.710;2024-02-26T12:11:56;3.90;;;2.00;;
85759;SDS011;76206;39.770;2.710;2024-02-26T12:14:25;2.10;;;1.30;;
85759;SDS011;76206;39.770;2.710;2024-02-26T12:16:51;2.90;;;1.20;;
85759;SDS011;76206;39.770;2.710;2024-02-26T12:19:18;2.40;;;1.20;;
85759;SDS011;76206;39.770;2.710;2024-02-26T12:24:13;3.30;;;1.30;;
85759;SDS011;76206;39.770;2.710;2024-02-26T12:26:43;5.70;;;1.60;;
85759;SDS011;76206;39.770;2.710;2024-02-26T12:29:08;3.60;;;1.00;;
85759;SDS011;76206;39.770;2.710;2024-02-26T12:31:35;1.20;;;0.60;;
85759;SDS011;76206;39.770;2.710;2024-02-26T12:34:04;3.50;;;1.80;;
85759;SDS011;76206;39.770;2.710;2024-02-26T12:36:30;1.90;;;1.10;;
85759;SDS011;76206;39.770;2.710;2024-02-26T12:38:56;6.50;;;1.70;;
85759;SDS011;76206;39.770;2.710;2024-02-26T12:41:22;5.20;;;1.70;;
85759;SDS011;76206;39.770;2.710;2024-02-26T12:43:48;6.20;;;2.10;;
85759;SDS011;76206;39.770;2.710;2024-02-26T12:46:13;5.70;;;2.30;;
85759;SDS011;76206;39.770;2.710;2024-02-26T12:48:43;3.30;;;2.00;;
85759;SDS011;76206;39.770;2.710;2024-02-26T12:53:40;4.20;;;1.80;;
85759;SDS011;76206;39.770;2.710;2024-02-26T12:56:09;3.80;;;1.80;;
85759;SDS011;76206;39.770;2.710;2024-02-26T12:58:37;3.60;;;1.40;;
85759;SDS011;76206;39.770;2.710;2024-02-26T13:01:04;3.80;;;1.70;;
85759;SDS011;76206;39.770;2.710;2024-02-26T13:03:31;6.00;;;2.70;;
85759;SDS011;76206;39.770;2.710;2024-02-26T13:06:00;6.20;;;2.80;;
85759;SDS011;76206;39.770;2.710;2024-02-26T13:08:26;6.80;;;2.30;;
85759;SDS011;76206;39.770;2.710;2024-02-26T13:10:51;4.20;;;2.20;;
85759;SDS011;76206;39.770;2.710;2024-02-26T13:13:18;4.40;;;2.40;;
85759;SDS011;76206;39.770;2.710;2024-02-26T13:15:45;3.70;;;2.10;;
85759;SDS011;76206;39.770;2.710;2024-02-26T13:18:11;3.90;;;2.70;;
85759;SDS011;76206;39.770;2.710;2024-02-26T13:20:38;7.80;;;2.70;;
85759;SDS011;76206;39.770;2.710;2024-02-26T13:23:08;4.70;;;2.40;;
85759;SDS011;76206;39.770;2.710;2024-02-26T13:25:36;7.00;;;3.20;;
85759;SDS011;76206;39.770;2.710;2024-02-26T13:28:07;4.50;;;2.80;;
85759;SDS011;76206;39.770;2.710;2024-02-26T13:30:36;9.90;;;3.20;;
85759;SDS011;76206;39.770;2.710;2024-02-26T13:33:12;7.70;;;3.30;;
85759;SDS011;76206;39.770;2.710;2024-02-26T13:35:38;7.10;;;3.00;;
85759;SDS011;76206;39.770;2.710;2024-02-26T13:38:05;8.80;;;3.50;;
85759;SDS011;76206;39.770;2.710;2024-02-26T13:40:35;3.90;;;2.20;;
85759;SDS011;76206;39.770;2.710;2024-02-26T13:43:00;4.00;;;1.70;;
85759;SDS011;76206;39.770;2.710;2024-02-26T13:45:26;2.70;;;1.40;;
85759;SDS011;76206;39.770;2.710;2024-02-26T13:47:52;6.10;;;2.20;;
